Time;durP1;ratioP1;P1;durP2;ratioP2;P2;SDS_P1;SDS_P2;PMS_P1;PMS_P2;Temp;Humidity;BMP_temperature;BMP_pressure;BME280_temperature;BME280_humidity;BME280_pressure;Samples;Min_cycle;Max_cycle;Signal;HPM_P1;HPM_P2
2022/05/31 00:00:57;;;;;;;20.50;9.50;;;;;;;8.41;100.00;101208.97;5116338;28;20107;-61
2022/05/31 00:03:22;;;;;;;21.63;10.65;;;;;;;8.33;100.00;101207.06;5115540;28;20114;-61
2022/05/31 00:05:48;;;;;;;20.98;10.48;;;;;;;8.28;100.00;101207.81;5119184;27;20060;-62
2022/05/31 00:08:13;;;;;;;21.80;10.68;;;;;;;8.22;100.00;101207.72;5120358;28;20023;-60
2022/05/31 00:10:38;;;;;;;22.23;9.98;;;;;;;8.19;100.00;101203.25;5120299;28;20091;-61
2022/05/31 00:13:04;;;;;;;21.58;10.10;;;;;;;8.26;100.00;101197.25;5119853;28;20039;-60
2022/05/31 00:15:29;;;;;;;21.55;10.63;;;;;;;8.14;100.00;101191.75;5118583;28;20059;-61
2022/05/31 00:17:55;;;;;;;22.58;10.98;;;;;;;8.01;100.00;101188.88;5114362;28;20458;-61
2022/05/31 00:20:20;;;;;;;21.42;10.48;;;;;;;7.95;100.00;101204.56;5116646;28;20027;-61
2022/05/31 00:22:47;;;;;;;22.15;11.15;;;;;;;7.88;100.00;101200.00;5115225;28;20458;-60
2022/05/31 00:25:12;;;;;;;22.05;10.93;;;;;;;7.87;100.00;101205.25;5119689;28;20104;-63
2022/05/31 00:27:38;;;;;;;22.10;11.48;;;;;;;7.88;100.00;101205.28;5122133;28;20122;-60
2022/05/31 00:30:05;;;;;;;21.33;10.85;;;;;;;7.90;100.00;101195.66;5116735;28;20034;-60
2022/05/31 00:32:35;;;;;;;21.58;10.80;;;;;;;7.95;100.00;101201.91;5118316;28;20505;-60
2022/05/31 00:35:12;;;;;;;21.58;10.65;;;;;;;7.92;100.00;101207.13;5119042;28;20529;-61
2022/05/31 00:37:38;;;;;;;21.58;10.82;;;;;;;7.89;100.00;101211.41;5119791;28;20026;-63
2022/05/31 00:40:05;;;;;;;22.48;10.80;;;;;;;7.91;100.00;101207.97;5118077;28;20023;-64
2022/05/31 00:42:46;;;;;;;22.42;11.63;;;;;;;7.93;100.00;101202.75;5113882;28;20098;-63
2022/05/31 00:45:12;;;;;;;23.15;11.35;;;;;;;7.95;100.00;101201.91;5113726;28;20023;-63
2022/05/31 00:47:37;;;;;;;21.60;11.27;;;;;;;7.88;100.00;101205.28;5118075;28;20027;-63
2022/05/31 00:50:07;;;;;;;20.92;11.48;;;;;;;7.81;100.00;101204.25;5112461;28;20108;-64
2022/05/31 00:52:37;;;;;;;23.48;11.73;;;;;;;7.84;100.00;101209.56;5117906;28;20024;-65
2022/05/31 00:55:19;;;;;;;22.77;11.63;;;;;;;7.84;100.00;101206.06;5117902;27;20028;-64
2022/05/31 00:57:53;;;;;;;23.17;12.00;;;;;;;7.83;100.00;101204.28;5123722;27;20023;-63
2022/05/31 01:00:19;;;;;;;23.05;11.82;;;;;;;7.79;100.00;101207.69;5122572;27;20028;-65
2022/05/31 01:02:46;;;;;;;22.80;11.63;;;;;;;7.83;100.00;101204.28;5120937;27;20103;-64
2022/05/31 01:05:13;;;;;;;23.55;11.90;;;;;;;7.83;100.00;101199.94;5123522;27;20031;-61
2022/05/31 01:07:39;;;;;;;22.90;11.93;;;;;;;7.77;100.00;101206.78;5121037;27;20038;-64
2022/05/31 01:10:06;;;;;;;23.42;12.48;;;;;;;7.77;100.00;101206.78;5121345;27;20035;-64
2022/05/31 01:12:33;;;;;;;23.35;12.32;;;;;;;7.74;100.00;101196.19;5123089;27;20026;-64
2022/05/31 01:14:59;;;;;;;26.65;12.77;;;;;;;7.71;100.00;101201.41;5121103;27;20034;-64
2022/05/31 01:17:25;;;;;;;23.85;12.80;;;;;;;7.67;100.00;101201.34;5119384;27;20348;-63
2022/05/31 01:20:01;;;;;;;22.17;11.63;;;;;;;7.69;100.00;101193.47;5121629;27;20023;-63
2022/05/31 01:22:26;;;;;;;22.80;12.32;;;;;;;7.62;100.00;101194.19;5119248;27;20039;-64
2022/05/31 01:25:04;;;;;;;22.30;12.48;;;;;;;7.57;100.00;101191.47;5120649;27;20024;-64
2022/05/31 01:27:51;;;;;;;22.33;11.90;;;;;;;7.55;100.00;101190.53;5120725;27;20055;-63
2022/05/31 01:30:18;;;;;;;23.40;12.25;;;;;;;7.44;100.00;101189.38;5117770;27;20153;-65
2022/05/31 01:32:58;;;;;;;23.90;12.27;;;;;;;7.37;100.00;101188.38;5124166;27;20034;-64
2022/05/31 01:35:32;;;;;;;22.88;12.85;;;;;;;7.30;100.00;101184.72;5122241;27;20466;-64
2022/05/31 01:38:13;;;;;;;22.85;12.05;;;;;;;7.31;100.00;101190.84;5092829;27;20060;-63
2022/05/31 01:40:48;;;;;;;23.15;12.55;;;;;;;7.24;100.00;101186.31;5118994;27;20020;-64
2022/05/31 01:43:13;;;;;;;23.30;13.20;;;;;;;7.25;100.00;101182.81;5121514;27;20024;-64
2022/05/31 01:45:50;;;;;;;23.75;12.63;;;;;;;7.22;100.00;101188.88;5123164;27;20492;-64
2022/05/31 01:48:17;;;;;;;24.05;13.80;;;;;;;7.11;100.00;101188.66;5120771;27;20127;-63
2022/05/31 01:50:45;;;;;;;24.50;14.02;;;;;;;7.19;100.00;101185.31;5117562;27;20031;-63
2022/05/31 01:53:11;;;;;;;24.13;13.50;;;;;;;7.16;100.00;101191.38;5120614;27;20026;-63
2022/05/31 01:55:40;;;;;;;23.17;12.90;;;;;;;7.15;100.00;101187.00;5122391;27;20024;-64
2022/05/31 01:58:07;;;;;;;24.00;13.45;;;;;;;7.19;100.00;101191.44;5122715;27;20447;-64
2022/05/31 02:00:32;;;;;;;24.30;14.23;;;;;;;7.11;100.00;101191.28;5123895;27;20019;-63
2022/05/31 02:03:02;;;;;;;24.83;14.73;;;;;;;7.07;100.00;101193.78;5119885;27;20046;-63
2022/05/31 02:05:27;;;;;;;23.45;13.98;;;;;;;7.12;100.00;101186.88;5118172;27;20054;-62
2022/05/31 02:07:57;;;;;;;24.88;13.80;;;;;;;7.10;100.00;101191.25;5119626;27;20486;-64
2022/05/31 02:10:23;;;;;;;23.17;13.38;;;;;;;7.00;100.00;101184.84;5121407;27;20023;-64
2022/05/31 02:12:50;;;;;;;24.05;13.70;;;;;;;7.05;100.00;101183.25;5104085;27;20429;-65
2022/05/31 02:15:16;;;;;;;23.60;13.70;;;;;;;7.11;100.00;101182.50;5120944;27;20035;-64
2022/05/31 02:17:42;;;;;;;24.27;13.82;;;;;;;7.19;100.00;101182.69;5118924;27;20027;-63
2022/05/31 02:20:07;;;;;;;23.70;13.60;;;;;;;7.22;100.00;101183.63;5121847;27;20030;-63
2022/05/31 02:22:33;;;;;;;24.73;13.18;;;;;;;7.35;100.00;101176.91;5124969;27;20489;-63
2022/05/31 02:24:59;;;;;;;23.33;13.75;;;;;;;7.41;100.00;101176.16;5118348;27;20034;-63
2022/05/31 02:27:24;;;;;;;22.95;12.85;;;;;;;7.44;100.00;101170.97;5120701;27;20051;-65
2022/05/31 02:29:50;;;;;;;24.95;14.40;;;;;;;7.42;100.00;101173.56;5119605;27;20024;-64
2022/05/31 02:32:16;;;;;;;23.65;13.60;;;;;;;7.44;100.00;101173.59;5103731;27;20439;-63
2022/05/31 02:34:45;;;;;;;24.02;13.60;;;;;;;7.43;100.00;101163.97;5119923;27;20561;-64
2022/05/31 02:37:11;;;;;;;24.80;13.60;;;;;;;7.47;100.00;101171.03;5116853;27;20031;-64
2022/05/31 02:39:36;;;;;;;24.73;14.05;;;;;;;7.44;100.00;101170.97;5116944;27;20080;-64
2022/05/31 02:42:02;;;;;;;24.55;14.07;;;;;;;7.46;100.00;101166.66;5122304;27;20407;-63
2022/05/31 02:44:28;;;;;;;24.17;13.85;;;;;;;7.49;100.00;101171.97;5119462;27;20019;-63
2022/05/31 02:46:53;;;;;;;24.52;13.32;;;;;;;7.51;100.00;101157.09;5121107;27;20106;-63
2022/05/31 02:49:18;;;;;;;23.98;13.65;;;;;;;7.53;100.00;101165.94;5118480;27;20022;-63
2022/05/31 02:51:46;;;;;;;24.15;13.65;;;;;;;7.53;100.00;101167.66;5115859;27;20470;-64
2022/05/31 02:54:13;;;;;;;24.85;13.27;;;;;;;7.58;100.00;101169.53;5116769;27;20028;-64
2022/05/31 02:56:38;;;;;;;24.45;14.20;;;;;;;7.55;100.00;101169.47;5102051;27;20023;-64
2022/05/31 02:59:08;;;;;;;24.13;13.73;;;;;;;7.55;100.00;101161.59;5116053;27;20030;-64
2022/05/31 03:01:36;;;;;;;23.83;13.88;;;;;;;7.52;100.00;101166.78;5117752;27;20069;-64
2022/05/31 03:04:02;;;;;;;24.10;13.88;;;;;;;7.53;100.00;101160.69;5119594;27;20027;-62
2022/05/31 03:06:28;;;;;;;24.13;13.60;;;;;;;7.55;100.00;101158.06;5120828;27;20028;-60
2022/05/31 03:08:53;;;;;;;23.80;13.48;;;;;;;7.56;100.00;101160.75;5120532;27;20081;-60
2022/05/31 03:11:34;;;;;;;24.10;13.73;;;;;;;7.60;100.00;101161.69;5119130;27;20027;-60
2022/05/31 03:14:13;;;;;;;23.73;12.70;;;;;;;7.62;100.00;101166.13;5115279;27;20117;-64
2022/05/31 03:16:41;;;;;;;22.70;13.10;;;;;;;7.63;100.00;101161.75;5119665;27;20106;-60
2022/05/31 03:19:10;;;;;;;23.90;13.13;;;;;;;7.67;100.00;101159.22;5120516;27;20027;-60
2022/05/31 03:21:39;;;;;;;22.40;11.90;;;;;;;7.76;100.00;101161.16;5117617;27;20055;-60
2022/05/31 03:24:32;;;;;;;24.23;12.45;;;;;;;7.85;100.00;101150.81;5123215;27;20118;-61
2022/05/31 03:27:01;;;;;;;23.73;13.30;;;;;;;7.85;100.00;101145.56;5120760;27;20068;-60
2022/05/31 03:29:26;;;;;;;22.27;12.35;;;;;;;7.88;100.00;101144.75;5115739;27;20398;-60
2022/05/31 03:31:52;;;;;;;24.67;13.18;;;;;;;7.92;100.00;101146.56;5116651;27;20102;-60
2022/05/31 03:34:17;;;;;;;23.58;13.38;;;;;;;7.90;100.00;101143.00;5119590;27;20031;-60
2022/05/31 03:36:43;;;;;;;26.27;14.00;;;;;;;7.96;100.00;101151.03;5116979;27;20068;-60
2022/05/31 03:39:08;;;;;;;24.23;13.27;;;;;;;8.01;100.00;101146.75;5119835;27;20016;-60
2022/05/31 03:41:35;;;;;;;23.17;13.40;;;;;;;7.99;100.00;101147.56;5109492;27;20455;-60
2022/05/31 03:44:01;;;;;;;24.27;13.23;;;;;;;7.98;100.00;101151.97;5108392;27;20533;-63
2022/05/31 03:46:27;;;;;;;24.38;13.70;;;;;;;7.96;100.00;101142.25;5112158;27;20115;-64
2022/05/31 03:48:52;;;;;;;23.58;14.00;;;;;;;7.90;100.00;101145.63;5119239;27;20020;-65
2022/05/31 03:51:17;;;;;;;24.10;13.23;;;;;;;7.89;100.00;101150.88;5116144;27;20011;-63
2022/05/31 03:53:43;;;;;;;22.60;12.50;;;;;;;7.93;100.00;101143.06;5118892;27;20030;-64
2022/05/31 03:56:11;;;;;;;23.48;13.50;;;;;;;7.96;100.00;101147.50;5114873;27;20547;-64
2022/05/31 03:58:37;;;;;;;24.73;13.48;;;;;;;7.92;100.00;101143.94;5118609;27;20047;-61
2022/05/31 04:01:03;;;;;;;23.35;13.07;;;;;;;7.92;100.00;101149.22;5120156;28;20027;-64
2022/05/31 04:03:29;;;;;;;24.13;13.18;;;;;;;8.00;100.00;101144.97;5117481;28;20030;-63
2022/05/31 04:05:54;;;;;;;24.50;13.02;;;;;;;8.01;100.00;101146.75;5114930;27;20055;-64
2022/05/31 04:08:20;;;;;;;23.55;12.93;;;;;;;8.02;100.00;101140.63;5117489;28;20106;-64
2022/05/31 04:10:47;;;;;;;24.35;13.18;;;;;;;8.01;100.00;101144.13;5095242;28;20023;-64
2022/05/31 04:13:14;;;;;;;23.75;13.05;;;;;;;8.02;100.00;101135.38;5119152;28;20020;-65
2022/05/31 04:15:39;;;;;;;23.77;13.60;;;;;;;8.06;100.00;101152.09;5115951;28;20059;-63
2022/05/31 04:18:06;;;;;;;24.08;13.35;;;;;;;8.12;100.00;101141.69;5119956;28;20446;-65
2022/05/31 04:20:32;;;;;;;23.65;13.57;;;;;;;8.16;100.00;101140.00;5117638;28;20027;-64
2022/05/31 04:25:41;;;;;;;24.33;13.43;;;;;;;8.20;100.00;101144.47;5121129;28;20492;-63
2022/05/31 04:28:07;;;;;;;24.27;13.40;;;;;;;8.24;100.00;101153.31;5118566;28;20036;-64
2022/05/31 04:30:32;;;;;;;23.77;12.80;;;;;;;8.25;100.00;101144.56;5118086;27;20367;-64
2022/05/31 04:32:57;;;;;;;23.85;13.43;;;;;;;8.35;100.00;101151.78;5123935;27;20023;-63
2022/05/31 04:35:23;;;;;;;25.00;13.50;;;;;;;8.42;100.00;101144.84;5121300;27;20390;-64
2022/05/31 04:37:48;;;;;;;23.33;13.25;;;;;;;8.43;100.00;101144.00;5123296;27;20106;-65
2022/05/31 04:40:13;;;;;;;24.20;13.05;;;;;;;8.45;100.00;101145.84;5121059;27;20094;-64
2022/05/31 04:42:39;;;;;;;23.85;13.27;;;;;;;8.44;100.00;101143.16;5123679;27;20027;-62
2022/05/31 04:45:05;;;;;;;22.95;12.98;;;;;;;8.50;100.00;101143.28;5121667;27;20031;-63
2022/05/31 04:47:31;;;;;;;24.77;13.05;;;;;;;8.51;100.00;101145.06;5124224;27;20024;-65
2022/05/31 04:49:57;;;;;;;23.92;13.10;;;;;;;8.48;100.00;101143.25;5123667;27;20049;-63
2022/05/31 04:52:22;;;;;;;23.77;12.57;;;;;;;8.49;100.00;101145.03;5120696;27;20027;-63
2022/05/31 04:54:47;;;;;;;24.17;13.48;;;;;;;8.52;100.00;101138.94;5124186;27;20481;-67
2022/05/31 04:57:13;;;;;;;25.20;13.38;;;;;;;8.60;100.00;101139.06;5123355;27;20110;-65
2022/05/31 04:59:38;;;;;;;24.55;13.02;;;;;;;8.70;100.00;101141.88;5119765;27;20102;-63
2022/05/31 05:02:03;;;;;;;23.45;13.23;;;;;;;8.80;100.00;101142.91;5122925;27;20024;-63
2022/05/31 05:04:29;;;;;;;23.95;13.00;;;;;;;8.94;100.00;101139.59;5123569;27;20031;-63
2022/05/31 05:06:54;;;;;;;23.38;12.90;;;;;;;9.03;100.00;101134.50;5117576;27;20051;-64
2022/05/31 05:09:19;;;;;;;23.33;12.93;;;;;;;9.10;100.00;101135.47;5125707;27;20027;-64
2022/05/31 05:11:46;;;;;;;23.52;12.77;;;;;;;9.19;100.00;101132.97;5115851;27;20082;-64
2022/05/31 05:14:11;;;;;;;24.52;13.23;;;;;;;9.24;100.00;101134.78;5120509;27;20055;-64
2022/05/31 05:16:37;;;;;;;24.38;13.18;;;;;;;9.28;100.00;101129.59;5120095;27;20446;-63
2022/05/31 05:19:02;;;;;;;24.73;13.98;;;;;;;9.33;100.00;101128.75;5122293;27;20473;-64
2022/05/31 05:21:28;;;;;;;25.15;13.73;;;;;;;9.36;100.00;101131.47;5120186;27;20094;-64
2022/05/31 05:23:53;;;;;;;25.85;13.45;;;;;;;9.43;100.00;101127.16;5123791;27;20116;-63
2022/05/31 05:26:18;;;;;;;26.15;13.55;;;;;;;9.48;100.00;101127.19;5120528;27;20024;-63
2022/05/31 05:31:31;;;;;;;26.60;14.30;;;;;;;9.63;100.00;101132.69;5120171;27;20120;-67
2022/05/31 05:34:00;;;;;;;26.52;14.25;;;;;;;9.69;100.00;101127.47;5119918;27;20513;-67
2022/05/31 05:36:25;;;;;;;24.73;13.95;;;;;;;9.73;100.00;101131.94;5121326;27;20355;-69
2022/05/31 05:38:51;;;;;;;26.63;14.57;;;;;;;9.77;100.00;101138.13;5120906;27;20030;-65
2022/05/31 05:41:18;;;;;;;25.13;14.25;;;;;;;9.81;100.00;101139.06;5118689;27;20067;-66
2022/05/31 05:43:44;;;;;;;26.85;14.30;;;;;;;9.87;100.00;101133.84;5118600;27;20045;-69
2022/05/31 05:46:15;;;;;;;25.15;14.85;;;;;;;9.98;100.00;101137.50;5120570;27;20027;-66
2022/05/31 05:48:42;;;;;;;26.08;14.93;;;;;;;10.05;100.00;101136.72;5120640;27;20024;-66
2022/05/31 05:51:16;;;;;;;25.58;13.48;;;;;;;10.04;100.00;101132.28;5120875;27;20051;-69
2022/05/31 05:53:41;;;;;;;25.13;14.45;;;;;;;10.04;100.00;101127.00;5121288;27;20106;-68
2022/05/31 05:56:07;;;;;;;26.40;15.10;;;;;;;10.04;100.00;101134.94;5119936;27;20549;-67
2022/05/31 05:58:32;;;;;;;24.67;14.55;;;;;;;10.00;100.00;101133.13;5121789;27;20434;-68
2022/05/31 06:00:58;;;;;;;26.88;15.60;;;;;;;9.96;100.00;101136.63;5124208;27;20032;-66
2022/05/31 06:03:59;;;;;;;25.90;15.65;;;;;;;9.90;100.00;101132.16;5099863;28;20020;-68
2022/05/31 06:06:27;;;;;;;26.55;15.93;;;;;;;9.97;100.00;101143.66;5116323;27;20044;-68
2022/05/31 06:09:02;;;;;;;26.85;16.13;;;;;;;9.92;100.00;101129.53;5121856;27;20161;-70
2022/05/31 06:11:34;;;;;;;26.83;16.08;;;;;;;9.91;100.00;101135.66;5118002;27;20019;-66
2022/05/31 06:14:27;;;;;;;27.95;16.02;;;;;;;9.94;100.00;101138.34;5118111;27;20034;-69
2022/05/31 06:17:00;;;;;;;28.98;16.77;;;;;;;9.99;100.00;101131.38;5116824;27;20028;-67
2022/05/31 06:19:31;;;;;;;26.42;17.38;;;;;;;10.01;100.00;101126.97;5099650;27;20035;-67
2022/05/31 06:21:58;;;;;;;27.38;17.42;;;;;;;10.07;100.00;101127.03;5122584;27;20032;-67
2022/05/31 06:24:27;;;;;;;27.50;17.48;;;;;;;10.13;100.00;101128.88;5121506;27;20081;-69
2022/05/31 06:26:52;;;;;;;26.95;17.50;;;;;;;10.20;100.00;101124.53;5119056;27;20077;-70
2022/05/31 06:29:17;;;;;;;27.73;17.13;;;;;;;10.29;100.00;101130.81;5118897;27;20090;-66
2022/05/31 06:31:43;;;;;;;26.75;17.65;;;;;;;10.46;100.00;101133.63;5116546;27;20039;-67
2022/05/31 06:34:09;;;;;;;27.02;16.90;;;;;;;10.54;100.00;101133.72;5119097;27;20024;-67
2022/05/31 06:36:34;;;;;;;26.55;17.45;;;;;;;10.60;100.00;101136.41;5116807;27;20041;-67
2022/05/31 06:38:59;;;;;;;25.90;16.60;;;;;;;10.60;100.00;101140.81;5123819;27;20027;-67
2022/05/31 06:41:25;;;;;;;26.85;16.95;;;;;;;10.65;100.00;101133.81;5120432;27;20027;-69
2022/05/31 06:43:50;;;;;;;27.45;16.67;;;;;;;10.74;100.00;101139.16;5117942;27;20486;-69
2022/05/31 06:46:15;;;;;;;25.98;15.70;;;;;;;10.82;100.00;101142.78;5117618;27;20031;-68
2022/05/31 06:48:41;;;;;;;26.23;16.63;;;;;;;10.91;100.00;101136.66;5119503;27;20099;-64
2022/05/31 06:51:10;;;;;;;26.15;16.25;;;;;;;10.97;100.00;101139.34;5118019;27;20020;-68
2022/05/31 06:59:03;;;;;;;26.35;15.90;;;;;;;11.07;100.00;101137.66;5117694;27;20137;-62
2022/05/31 07:01:31;;;;;;;25.98;14.85;;;;;;;11.16;100.00;101135.06;5122049;27;20019;-66
2022/05/31 07:04:00;;;;;;;25.15;14.48;;;;;;;11.33;100.00;101142.25;5116381;27;20024;-65
2022/05/31 07:06:26;;;;;;;25.00;13.63;;;;;;;11.59;100.00;101130.91;5112562;28;20424;-62
2022/05/31 07:08:51;;;;;;;24.95;13.13;;;;;;;11.82;100.00;101134.56;5114054;27;20073;-62
2022/05/31 07:11:16;;;;;;;23.25;11.18;;;;;;;12.09;100.00;101132.91;5112482;27;20067;-62
2022/05/31 07:13:41;;;;;;;24.73;11.25;;;;;;;12.35;100.00;101138.25;5117791;27;20019;-65
2022/05/31 07:16:07;;;;;;;21.98;10.02;;;;;;;12.49;100.00;101130.28;5115512;27;20114;-63
2022/05/31 07:18:32;;;;;;;21.77;10.40;;;;;;;12.73;100.00;101128.56;5121250;27;20055;-63
2022/05/31 07:20:57;;;;;;;21.10;9.75;;;;;;;13.02;100.00;101122.34;5120511;27;20027;-66
2022/05/31 07:23:23;;;;;;;22.48;9.65;;;;;;;13.25;100.00;101119.63;5118515;27;20046;-65
2022/05/31 07:25:48;;;;;;;22.13;9.52;;;;;;;13.49;100.00;101121.38;5117787;27;20020;-63
2022/05/31 07:28:13;;;;;;;20.95;9.23;;;;;;;13.61;100.00;101117.78;5116441;27;20563;-64
2022/05/31 07:30:39;;;;;;;21.40;9.55;;;;;;;13.62;100.00;101119.56;5116947;27;20141;-63
2022/05/31 07:33:04;;;;;;;22.17;9.75;;;;;;;13.63;100.00;101121.34;5119801;27;20542;-65
2022/05/31 07:35:30;;;;;;;20.98;9.23;;;;;;;13.57;100.00;101122.25;5117509;27;20417;-62
2022/05/31 07:37:56;;;;;;;21.75;9.35;;;;;;;13.57;100.00;101124.91;5118837;27;20027;-63
2022/05/31 07:40:21;;;;;;;21.27;9.25;;;;;;;13.60;100.00;101118.69;5116326;27;20031;-63
2022/05/31 07:42:46;;;;;;;22.45;8.95;;;;;;;13.57;100.00;101124.91;5117892;27;20028;-61
2022/05/31 07:45:12;;;;;;;20.40;8.65;;;;;;;13.66;100.00;101125.75;5121529;27;20019;-61
2022/05/31 07:47:37;;;;;;;20.88;8.70;;;;;;;13.78;100.00;101126.56;5113829;28;20023;-61
2022/05/31 07:50:03;;;;;;;21.05;9.05;;;;;;;13.89;100.00;101120.31;5118399;27;20065;-61
2022/05/31 07:52:29;;;;;;;22.25;9.82;;;;;;;14.07;100.00;101124.69;5114529;27;20472;-62
2022/05/31 07:54:54;;;;;;;21.30;9.40;;;;;;;14.15;100.00;101120.19;5116801;27;20035;-62
2022/05/31 08:00:05;;;;;;;21.67;9.80;;;;;;;14.37;100.00;101109.41;5120642;27;20436;-60
2022/05/31 08:02:30;;;;;;;20.52;8.50;;;;;;;14.50;100.00;101111.06;5118184;27;20035;-62
2022/05/31 08:04:55;;;;;;;21.35;8.90;;;;;;;14.53;100.00;101108.41;5118251;27;20463;-61
2022/05/31 08:07:21;;;;;;;21.15;7.85;;;;;;;14.62;100.00;101111.03;5117631;27;20019;-61
2022/05/31 08:09:46;;;;;;;20.98;8.20;;;;;;;14.72;100.00;101113.59;5116571;27;20015;-61
2022/05/31 08:12:13;;;;;;;20.42;8.63;;;;;;;14.88;100.00;101112.59;5120429;28;20467;-61
2022/05/31 08:14:38;;;;;;;21.98;8.30;;;;;;;14.98;100.00;101108.94;5114666;28;20015;-63
2022/05/31 08:17:04;;;;;;;20.15;7.78;;;;;;;15.11;100.00;101103.47;5117675;28;20489;-61
2022/05/31 08:19:30;;;;;;;20.63;9.10;;;;;;;15.09;100.00;101097.31;5118839;28;20052;-61
2022/05/31 08:21:56;;;;;;;22.77;10.18;;;;;;;15.13;100.00;101099.00;5111903;28;20019;-61
2022/05/31 08:24:23;;;;;;;21.00;8.77;;;;;;;15.21;100.00;101088.31;5114311;28;20031;-61
2022/05/31 08:26:49;;;;;;;21.25;9.48;;;;;;;15.45;100.00;101092.44;5097279;28;20382;-61
2022/05/31 08:29:14;;;;;;;22.10;9.27;;;;;;;15.53;100.00;101090.59;5117957;28;20052;-62
2022/05/31 08:31:40;;;;;;;21.00;8.85;;;;;;;15.67;100.00;101091.28;5117260;28;20019;-62
2022/05/31 08:34:07;;;;;;;21.42;9.77;;;;;;;15.93;100.00;101095.44;5119095;28;20034;-62
2022/05/31 08:36:33;;;;;;;20.67;9.45;;;;;;;16.23;100.00;101098.56;5119124;28;20378;-62
2022/05/31 08:38:58;;;;;;;20.30;8.98;;;;;;;16.50;99.55;101093.72;5118712;28;20027;-63
2022/05/31 08:41:28;;;;;;;20.40;9.40;;;;;;;16.65;99.31;101097.91;5114235;28;20443;-63
2022/05/31 08:44:03;;;;;;;19.58;8.27;;;;;;;16.58;93.19;101099.78;5118181;28;20101;-64
2022/05/31 08:46:47;;;;;;;19.92;8.35;;;;;;;16.77;93.39;101096.81;5117281;28;20089;-63
2022/05/31 08:52:28;;;;;;;20.92;8.63;;;;;;;16.66;88.84;101104.97;5113424;28;20053;-63
2022/05/31 08:57:54;;;;;;;20.73;8.25;;;;;;;16.84;91.35;101094.00;5116412;28;20048;-63
2022/05/31 09:00:24;;;;;;;18.98;7.57;;;;;;;16.97;88.07;101088.47;5093635;28;20023;-63
2022/05/31 09:02:58;;;;;;;19.45;7.97;;;;;;;16.99;88.09;101090.19;5116980;28;20020;-62
2022/05/31 09:05:29;;;;;;;19.30;7.63;;;;;;;16.87;84.67;101095.72;5120055;28;20019;-62
2022/05/31 09:08:02;;;;;;;20.13;7.40;;;;;;;16.88;86.66;101089.53;5114870;28;20521;-71
2022/05/31 09:10:36;;;;;;;19.48;7.32;;;;;;;17.10;86.27;101091.81;5117500;28;20072;-71
2022/05/31 09:13:27;;;;;;;18.73;7.55;;;;;;;16.99;85.87;101098.19;5117565;28;20164;-71
2022/05/31 09:16:01;;;;;;;20.02;7.90;;;;;;;16.53;85.11;101101.66;5114299;28;20378;-70
2022/05/31 09:18:50;;;;;;;20.90;7.60;;;;;;;16.41;87.83;101099.16;5123590;27;20440;-71
2022/05/31 09:21:41;;;;;;;19.52;7.57;;;;;;;16.47;87.66;101089.28;5124083;27;20031;-66
2022/05/31 09:24:36;;;;;;;20.13;8.10;;;;;;;16.78;88.49;101090.56;5117064;27;20441;-65
2022/05/31 09:27:19;;;;;;;19.55;7.70;;;;;;;17.12;85.82;101095.31;5122022;27;20028;-63
2022/05/31 09:30:11;;;;;;;20.25;8.02;;;;;;;17.46;84.74;101090.22;5121276;27;20047;-69
2022/05/31 09:33:08;;;;;;;20.35;8.18;;;;;;;17.84;82.30;101092.97;5117368;27;20027;-65
2022/05/31 09:36:00;;;;;;;20.65;8.00;;;;;;;17.90;81.92;101091.06;5118650;27;20028;-64
2022/05/31 09:38:29;;;;;;;19.38;7.05;;;;;;;17.92;78.12;101088.38;5118438;27;20039;-65
2022/05/31 09:41:14;;;;;;;20.67;7.40;;;;;;;18.52;79.51;101083.41;5124782;27;20027;-65
2022/05/31 09:43:49;;;;;;;19.25;7.40;;;;;;;19.10;77.02;101087.25;5116589;27;20021;-62
2022/05/31 09:46:32;;;;;;;18.40;6.82;;;;;;;19.20;69.77;101082.53;5117915;27;20034;-67
2022/05/31 09:48:58;;;;;;;18.88;7.45;;;;;;;19.43;69.02;101083.69;5117392;27;20523;-61
2022/05/31 09:51:37;;;;;;;18.48;7.57;;;;;;;19.67;64.58;101084.75;5119918;27;20075;-65
2022/05/31 09:59:32;;;;;;;19.05;7.30;;;;;;;19.13;66.75;101081.84;5119901;27;20042;-62
2022/05/31 10:02:17;;;;;;;18.85;7.30;;;;;;;20.63;59.22;101079.09;5118384;27;20374;-71
2022/05/31 10:04:43;;;;;;;19.35;7.13;;;;;;;21.93;50.23;101078.88;5118289;27;20050;-62
2022/05/31 10:07:09;;;;;;;19.70;7.30;;;;;;;22.06;48.71;101081.06;5120573;27;20032;-64
2022/05/31 10:09:40;;;;;;;20.45;7.10;;;;;;;23.09;41.91;101074.06;5120704;27;20028;-70
2022/05/31 10:12:22;;;;;;;19.10;7.20;;;;;;;22.09;42.58;101070.19;5122487;27;20027;-69
2022/05/31 10:14:50;;;;;;;19.07;7.63;;;;;;;21.93;41.36;101076.19;5118295;27;20034;-64
2022/05/31 10:17:36;;;;;;;19.70;7.60;;;;;;;21.46;44.15;101072.59;5121890;27;20419;-62
2022/05/31 10:20:13;;;;;;;20.05;7.85;;;;;;;20.66;45.50;101066.50;5117386;27;20151;-62
2022/05/31 10:22:52;;;;;;;19.33;8.10;;;;;;;20.10;46.95;101070.06;5120529;27;20096;-68
2022/05/31 10:25:28;;;;;;;19.40;7.88;;;;;;;19.64;47.73;101060.72;5121752;27;20035;-71
2022/05/31 10:28:00;;;;;;;20.15;8.15;;;;;;;19.27;51.39;101064.50;5116736;27;20462;-65
2022/05/31 10:30:27;;;;;;;21.67;8.82;;;;;;;18.92;50.25;101072.56;5118779;27;20031;-65
2022/05/31 10:32:56;;;;;;;20.65;8.15;;;;;;;18.70;49.78;101069.56;5124169;27;20027;-65
2022/05/31 10:35:30;;;;;;;20.10;7.82;;;;;;;18.66;49.74;101075.03;5119947;27;20450;-66
2022/05/31 10:38:25;;;;;;;20.23;7.97;;;;;;;18.98;49.99;101068.84;5118526;27;20466;-64
2022/05/31 10:40:55;;;;;;;20.58;8.18;;;;;;;19.03;48.09;101072.25;5122682;27;20027;-66
2022/05/31 10:43:48;;;;;;;19.23;7.70;;;;;;;19.17;49.00;101067.41;5118357;27;20031;-65
2022/05/31 10:46:29;;;;;;;20.05;7.63;;;;;;;19.44;49.04;101064.00;5120497;27;20474;-66
2022/05/31 10:48:56;;;;;;;20.77;7.88;;;;;;;19.15;48.46;101061.22;5117586;27;20027;-66
2022/05/31 10:51:34;;;;;;;19.88;7.70;;;;;;;18.73;50.89;101061.44;5118650;27;20024;-68
2022/05/31 10:54:24;;;;;;;20.02;8.27;;;;;;;18.30;50.50;101073.22;5119279;27;20038;-64
2022/05/31 10:57:18;;;;;;;20.70;8.40;;;;;;;17.85;51.14;101068.84;5113492;27;20116;-65
2022/05/31 10:59:53;;;;;;;20.45;8.13;;;;;;;17.49;52.62;101063.41;5033971;28;20128;-65
2022/05/31 11:02:54;;;;;;;20.48;8.00;;;;;;;17.28;53.12;101062.03;5032086;28;20065;-65
2022/05/31 11:05:29;;;;;;;20.48;8.60;;;;;;;17.20;53.40;101054.19;5037545;28;20095;-66
2022/05/31 11:11:30;;;;;;;20.70;8.60;;;;;;;17.03;54.31;101075.88;5030892;28;20040;-66
2022/05/31 11:14:33;;;;;;;20.35;8.35;;;;;;;16.97;54.92;101068.00;5030759;28;20488;-70
2022/05/31 11:17:37;;;;;;;20.55;8.73;;;;;;;17.11;57.04;101078.44;4950853;28;20040;-67
2022/05/31 11:20:18;;;;;;;20.98;8.30;;;;;;;17.35;56.62;101071.69;4947313;28;20075;-72
2022/05/31 11:23:14;;;;;;;20.38;8.25;;;;;;;17.67;56.67;101078.16;4957612;28;20285;-70
2022/05/31 11:26:10;;;;;;;21.23;8.52;;;;;;;17.87;56.10;101074.19;4956201;28;20038;-74
2022/05/31 11:29:01;;;;;;;21.52;8.10;;;;;;;17.94;57.43;101076.72;4945449;28;20098;-73
2022/05/31 11:31:46;;;;;;;20.92;8.30;;;;;;;17.99;58.24;101076.63;4953768;28;20046;-74
2022/05/31 11:34:44;;;;;;;21.42;8.45;;;;;;;18.08;60.13;101075.53;4953143;28;20062;-71
2022/05/31 11:37:19;;;;;;;21.05;8.68;;;;;;;18.68;56.41;101074.06;4993765;28;20142;-73
2022/05/31 11:40:04;;;;;;;20.20;8.70;;;;;;;18.93;56.25;101068.97;5013055;28;20437;-73
2022/05/31 11:43:09;;;;;;;20.45;8.02;;;;;;;19.11;54.76;101078.31;5009633;28;20448;-68
2022/05/31 11:46:12;;;;;;;19.38;7.93;;;;;;;19.87;50.71;101073.47;5017285;28;20056;-64
2022/05/31 11:49:03;;;;;;;20.20;7.67;;;;;;;21.69;47.95;101077.16;5100320;27;20043;-64
2022/05/31 11:51:45;;;;;;;17.98;6.47;;;;;;;24.84;40.77;101073.94;5117028;27;20055;-65
2022/05/31 11:54:23;;;;;;;18.80;6.00;;;;;;;27.30;32.84;101071.75;5117735;27;20019;-64